createdAt,value
2023-03-28T00:06:42.046Z,2.63
2023-03-28T00:14:15.994Z,0.50
2023-03-28T00:21:51.647Z,3.47
2023-03-28T00:29:26.247Z,2.08
2023-03-28T00:37:02.683Z,1.85
2023-03-28T00:44:44.694Z,0.50
2023-03-28T00:52:24.318Z,4.60
2023-03-28T00:59:58.627Z,1.92
2023-03-28T01:15:13.824Z,4.35
2023-03-28T01:23:35.221Z,3.60
2023-03-28T01:31:34.290Z,6.60
2023-03-28T01:39:16.892Z,2.38
2023-03-28T01:46:57.873Z,5.80
2023-03-28T01:54:41.404Z,2.42
2023-03-28T02:02:24.894Z,2.78
2023-03-28T02:10:02.675Z,3.20
2023-03-28T02:17:54.537Z,1.45
2023-03-28T02:25:31.790Z,1.08
2023-03-28T02:33:10.095Z,3.05
2023-03-28T02:40:56.226Z,2.20
2023-03-28T02:48:56.728Z,3.33
2023-03-28T02:56:41.357Z,8.55
2023-03-28T03:04:17.247Z,8.40
2023-03-28T03:11:52.390Z,3.97
2023-03-28T03:19:26.440Z,2.85
2023-03-28T03:34:53.305Z,10.75
2023-03-28T03:42:29.060Z,9.43
2023-03-28T03:50:03.065Z,5.60
2023-03-28T03:57:38.467Z,2.90
2023-03-28T04:05:12.428Z,4.72
2023-03-28T04:12:47.666Z,4.65
2023-03-28T04:20:21.447Z,2.85
2023-03-28T04:27:56.825Z,2.80
2023-03-28T04:35:30.883Z,3.53
2023-03-28T04:43:06.325Z,3.38
2023-03-28T04:50:40.100Z,3.90
2023-03-28T04:58:15.889Z,4.22
2023-03-28T05:05:51.551Z,3.72
2023-03-28T05:13:26.988Z,4.07
2023-03-28T05:21:01.245Z,6.70
2023-03-28T05:28:36.898Z,3.00
2023-03-28T05:36:11.011Z,3.33
2023-03-28T05:43:46.645Z,4.85
2023-03-28T05:59:13.572Z,5.28
2023-03-28T06:06:48.731Z,1.05
2023-03-28T06:14:24.537Z,10.73
2023-03-28T06:21:58.985Z,4.65
2023-03-28T06:29:34.599Z,1.95
2023-03-28T06:37:08.628Z,2.60
2023-03-28T06:44:44.310Z,3.63
2023-03-28T06:52:19.729Z,2.83
2023-03-28T06:59:55.429Z,1.67
2023-03-28T07:07:29.309Z,1.92
2023-03-28T07:15:05.659Z,7.07
2023-03-28T07:22:39.495Z,3.40
2023-03-28T07:30:15.998Z,1.60
2023-03-28T07:37:49.838Z,1.33
2023-03-28T07:45:25.155Z,1.35
2023-03-28T07:53:00.150Z,2.40
2023-03-28T08:00:35.635Z,0.98
2023-03-28T08:08:09.946Z,2.83
2023-03-28T08:23:19.229Z,2.38
2023-03-28T08:30:54.773Z,6.10
2023-03-28T08:38:29.244Z,1.05
2023-03-28T08:53:44.101Z,0.80
2023-03-28T09:01:22.487Z,0.75
2023-03-28T09:09:29.051Z,4.97
2023-03-28T09:17:13.314Z,0.30
2023-03-28T09:24:58.514Z,2.40
2023-03-28T09:32:38.345Z,0.55
2023-03-28T09:40:21.268Z,1.00
2023-03-28T09:47:57.318Z,0.40
2023-03-28T09:55:32.272Z,1.27
2023-03-28T10:03:22.985Z,0.52
2023-03-28T10:11:00.193Z,1.38
2023-03-28T10:18:35.935Z,0.25
2023-03-28T10:26:13.777Z,0.75
2023-03-28T10:33:53.726Z,0.10
2023-03-28T10:41:28.623Z,0.35
2023-03-28T10:49:06.892Z,0.60
2023-03-28T10:56:44.663Z,1.35
2023-03-28T11:04:32.300Z,0.30
2023-03-28T11:12:28.310Z,1.98
2023-03-28T11:20:35.738Z,0.93
2023-03-28T11:28:21.051Z,1.35
2023-03-28T11:36:01.244Z,0.55
2023-03-28T11:43:42.595Z,3.03
2023-03-28T11:51:21.807Z,0.70
2023-03-28T11:59:02.173Z,0.95
2023-03-28T12:06:55.722Z,0.20
2023-03-28T12:22:42.518Z,0.88
2023-03-28T12:46:19.621Z,1.33
2023-03-28T12:54:22.519Z,0.65
2023-03-28T13:09:59.825Z,1.38
2023-03-28T13:17:37.840Z,0.77
2023-03-28T13:25:26.442Z,0.22
2023-03-28T13:33:04.047Z,0.63
2023-03-28T13:40:55.913Z,1.33
2023-03-28T13:48:34.943Z,0.43
2023-03-28T13:56:19.812Z,0.20
2023-03-28T14:03:55.085Z,1.60
2023-03-28T14:11:35.830Z,1.30
2023-03-28T14:19:20.082Z,1.67
2023-03-28T14:27:10.638Z,1.45
2023-03-28T14:34:45.786Z,0.57
2023-03-28T14:42:23.845Z,2.50
2023-03-28T14:49:58.264Z,0.43
2023-03-28T14:57:34.831Z,1.17
2023-03-28T15:05:11.251Z,0.38
2023-03-28T15:12:49.834Z,0.60
2023-03-28T15:20:27.623Z,2.05
2023-03-28T15:28:06.544Z,1.00
2023-03-28T15:35:43.730Z,0.70
2023-03-28T15:43:38.968Z,1.65
2023-03-28T15:51:17.430Z,2.63
2023-03-28T15:58:53.508Z,1.55
2023-03-28T16:14:05.661Z,1.13
2023-03-28T16:21:39.359Z,2.28
2023-03-28T16:29:14.663Z,0.98
2023-03-28T16:36:48.839Z,0.68
2023-03-28T16:44:24.641Z,1.30
2023-03-28T16:51:58.431Z,2.40
2023-03-28T16:59:33.718Z,2.58
2023-03-28T17:07:07.537Z,2.83
2023-03-28T17:14:43.089Z,1.35
2023-03-28T17:22:16.982Z,3.35
2023-03-28T17:29:52.557Z,2.50
2023-03-28T17:37:26.461Z,5.03
2023-03-28T17:45:01.860Z,5.35
2023-03-28T17:52:35.858Z,3.05
2023-03-28T18:00:12.600Z,0.83
2023-03-28T18:07:47.663Z,2.92
2023-03-28T18:15:22.842Z,3.53
2023-03-28T18:22:56.784Z,3.17
2023-03-28T18:30:32.181Z,2.97
2023-03-28T18:38:06.149Z,2.60
2023-03-28T18:45:41.940Z,1.83
2023-03-28T18:53:16.011Z,4.55
2023-03-28T19:00:57.526Z,2.30
2023-03-28T19:08:31.488Z,4.38
2023-03-28T19:16:09.101Z,4.53
2023-03-28T19:23:43.651Z,2.15
2023-03-28T19:31:20.297Z,4.00
2023-03-28T19:38:54.415Z,4.55
2023-03-28T19:46:33.766Z,7.67
2023-03-28T19:54:09.255Z,6.00
2023-03-28T20:01:44.687Z,3.40
2023-03-28T20:09:18.638Z,5.15
2023-03-28T20:16:53.821Z,8.53
2023-03-28T20:24:28.454Z,7.90
2023-03-28T20:39:39.041Z,10.77
2023-03-28T20:47:20.486Z,9.53
2023-03-28T20:54:55.051Z,11.40
2023-03-28T21:02:33.731Z,13.07
2023-03-28T21:10:10.206Z,12.88
2023-03-28T21:17:49.172Z,12.93
2023-03-28T21:25:23.373Z,10.23
2023-03-28T21:33:02.126Z,10.82
2023-03-28T21:40:37.426Z,10.57
2023-03-28T21:48:13.280Z,16.87
2023-03-28T21:55:47.392Z,13.75
2023-03-28T22:03:23.869Z,16.92
2023-03-28T22:11:01.746Z,17.23
2023-03-28T22:18:37.285Z,18.92
2023-03-28T22:26:11.496Z,17.95
2023-03-28T22:33:47.390Z,13.98
2023-03-28T22:41:22.042Z,13.77
2023-03-28T22:48:58.577Z,10.90
2023-03-28T22:56:33.972Z,11.48
2023-03-28T23:04:09.233Z,13.68
2023-03-28T23:19:36.413Z,18.55
2023-03-28T23:27:10.276Z,13.80
2023-03-28T23:34:45.764Z,9.67
2023-03-28T23:42:19.852Z,11.07
2023-03-28T23:49:55.075Z,14.55
2023-03-28T23:57:29.521Z,11.60
